sensor_id;sensor_type;location;lat;lon;timestamp;pressure;altitude;pressure_sealevel;temperature;humidity
44453;BME280;30155;52.164;21.236;2022-10-23T00:02:17;100431.38;;;12.34;94.65
44453;BME280;30155;52.164;21.236;2022-10-23T00:07:09;100431.80;;;12.34;94.60
44453;BME280;30155;52.164;21.236;2022-10-23T00:12:00;100443.55;;;12.32;94.59
44453;BME280;30155;52.164;21.236;2022-10-23T00:16:51;100444.39;;;12.31;94.56
44453;BME280;30155;52.164;21.236;2022-10-23T00:21:43;100442.23;;;12.31;94.59
44453;BME280;30155;52.164;21.236;2022-10-23T00:26:36;100446.14;;;12.31;94.50
44453;BME280;30155;52.164;21.236;2022-10-23T00:31:30;100446.13;;;12.29;94.48
44453;BME280;30155;52.164;21.236;2022-10-23T00:36:22;100453.94;;;12.29;94.44
44453;BME280;30155;52.164;21.236;2022-10-23T00:41:23;100460.00;;;12.27;94.43
44453;BME280;30155;52.164;21.236;2022-10-23T00:46:18;100457.41;;;12.25;94.45
44453;BME280;30155;52.164;21.236;2022-10-23T00:51:09;100457.81;;;12.25;94.43
44453;BME280;30155;52.164;21.236;2022-10-23T00:56:00;100462.61;;;12.24;94.46
44453;BME280;30155;52.164;21.236;2022-10-23T01:00:54;100473.05;;;12.25;94.46
44453;BME280;30155;52.164;21.236;2022-10-23T01:06:12;100471.74;;;12.25;94.48
44453;BME280;30155;52.164;21.236;2022-10-23T01:11:29;100477.81;;;12.26;94.46
44453;BME280;30155;52.164;21.236;2022-10-23T01:16:41;100486.52;;;12.28;94.52
44453;BME280;30155;52.164;21.236;2022-10-23T01:27:39;100499.13;;;12.30;94.64
44453;BME280;30155;52.164;21.236;2022-10-23T01:32:55;100506.09;;;12.31;94.76
44453;BME280;30155;52.164;21.236;2022-10-23T01:37:52;100503.48;;;12.31;94.84
44453;BME280;30155;52.164;21.236;2022-10-23T01:42:48;100510.88;;;12.33;94.82
44453;BME280;30155;52.164;21.236;2022-10-23T01:47:44;100509.16;;;12.35;94.85
44453;BME280;30155;52.164;21.236;2022-10-23T01:52:39;100504.80;;;12.35;94.85
44453;BME280;30155;52.164;21.236;2022-10-23T01:57:32;100509.59;;;12.37;94.85
44453;BME280;30155;52.164;21.236;2022-10-23T02:02:26;100509.60;;;12.39;94.92
44453;BME280;30155;52.164;21.236;2022-10-23T02:07:18;100505.69;;;12.39;94.90
44453;BME280;30155;52.164;21.236;2022-10-23T02:12:23;100514.84;;;12.42;94.93
44453;BME280;30155;52.164;21.236;2022-10-23T02:17:24;100518.76;;;12.42;94.95
44453;BME280;30155;52.164;21.236;2022-10-23T02:22:36;100528.75;;;12.43;94.93
44453;BME280;30155;52.164;21.236;2022-10-23T02:27:36;100526.16;;;12.44;94.97
44453;BME280;30155;52.164;21.236;2022-10-23T02:32:39;100537.04;;;12.45;95.05
44453;BME280;30155;52.164;21.236;2022-10-23T02:37:36;100537.90;;;12.46;95.02
44453;BME280;30155;52.164;21.236;2022-10-23T02:42:44;100539.22;;;12.47;95.02
44453;BME280;30155;52.164;21.236;2022-10-23T02:53:13;100540.50;;;12.44;94.96
44453;BME280;30155;52.164;21.236;2022-10-23T03:04:02;100551.36;;;12.44;95.07
44453;BME280;30155;52.164;21.236;2022-10-23T03:08:51;100548.31;;;12.44;95.08
44453;BME280;30155;52.164;21.236;2022-10-23T03:13:43;100555.30;;;12.45;95.20
44453;BME280;30155;52.164;21.236;2022-10-23T03:18:35;100550.92;;;12.44;95.11
44453;BME280;30155;52.164;21.236;2022-10-23T03:23:27;100553.53;;;12.44;95.08
44453;BME280;30155;52.164;21.236;2022-10-23T03:28:18;100553.98;;;12.45;95.18
44453;BME280;30155;52.164;21.236;2022-10-23T03:33:10;100551.38;;;12.45;95.14
44453;BME280;30155;52.164;21.236;2022-10-23T03:38:02;100544.44;;;12.47;95.09
44453;BME280;30155;52.164;21.236;2022-10-23T03:42:53;100538.34;;;12.45;95.06
44453;BME280;30155;52.164;21.236;2022-10-23T03:47:45;100548.30;;;12.39;94.87
44453;BME280;30155;52.164;21.236;2022-10-23T03:52:38;100550.87;;;12.35;94.91
44453;BME280;30155;52.164;21.236;2022-10-23T03:57:30;100556.50;;;12.33;94.89
44453;BME280;30155;52.164;21.236;2022-10-23T04:02:22;100554.75;;;12.32;95.01
44453;BME280;30155;52.164;21.236;2022-10-23T04:07:15;100564.33;;;12.33;95.05
44453;BME280;30155;52.164;21.236;2022-10-23T04:12:08;100568.23;;;12.33;95.05
44453;BME280;30155;52.164;21.236;2022-10-23T04:16:59;100578.23;;;12.35;95.09
44453;BME280;30155;52.164;21.236;2022-10-23T04:21:52;100575.16;;;12.29;94.87
44453;BME280;30155;52.164;21.236;2022-10-23T04:26:43;100581.62;;;12.25;95.06
44453;BME280;30155;52.164;21.236;2022-10-23T04:31:35;100590.34;;;12.25;95.33
44453;BME280;30155;52.164;21.236;2022-10-23T04:36:27;100597.27;;;12.25;95.24
44453;BME280;30155;52.164;21.236;2022-10-23T04:41:18;100605.09;;;12.25;95.37
44453;BME280;30155;52.164;21.236;2022-10-23T04:46:09;100599.45;;;12.27;95.36
44453;BME280;30155;52.164;21.236;2022-10-23T04:51:03;100607.31;;;12.30;95.36
44453;BME280;30155;52.164;21.236;2022-10-23T04:56:15;100610.78;;;12.30;95.32
44453;BME280;30155;52.164;21.236;2022-10-23T05:01:11;100617.31;;;12.32;95.34
44453;BME280;30155;52.164;21.236;2022-10-23T05:06:04;100618.64;;;12.33;95.32
44453;BME280;30155;52.164;21.236;2022-10-23T05:11:06;100626.91;;;12.34;95.28
44453;BME280;30155;52.164;21.236;2022-10-23T05:15:59;100630.84;;;12.36;95.19
44453;BME280;30155;52.164;21.236;2022-10-23T05:21:00;100639.06;;;12.35;95.10
44453;BME280;30155;52.164;21.236;2022-10-23T05:25:50;100639.97;;;12.36;95.05
44453;BME280;30155;52.164;21.236;2022-10-23T05:30:42;100641.69;;;12.37;94.97
44453;BME280;30155;52.164;21.236;2022-10-23T05:35:35;100642.58;;;12.36;94.87
44453;BME280;30155;52.164;21.236;2022-10-23T05:40:28;100639.55;;;12.38;94.86
44453;BME280;30155;52.164;21.236;2022-10-23T05:45:21;100642.58;;;12.39;94.71
44453;BME280;30155;52.164;21.236;2022-10-23T05:50:37;100649.09;;;12.39;94.63
44453;BME280;30155;52.164;21.236;2022-10-23T05:55:34;100649.55;;;12.40;94.65
44453;BME280;30155;52.164;21.236;2022-10-23T06:00:30;100649.97;;;12.41;94.64
44453;BME280;30155;52.164;21.236;2022-10-23T06:05:23;100653.50;;;12.43;94.59
44453;BME280;30155;52.164;21.236;2022-10-23T06:10:37;100660.02;;;12.43;94.38
44453;BME280;30155;52.164;21.236;2022-10-23T06:15:30;100660.00;;;12.42;94.18
44453;BME280;30155;52.164;21.236;2022-10-23T06:20:23;100659.14;;;12.44;94.14
44453;BME280;30155;52.164;21.236;2022-10-23T06:25:24;100657.41;;;12.46;93.93
44453;BME280;30155;52.164;21.236;2022-10-23T06:30:17;100667.01;;;12.49;93.85
44453;BME280;30155;52.164;21.236;2022-10-23T06:35:12;100672.25;;;12.53;93.97
44453;BME280;30155;52.164;21.236;2022-10-23T06:40:07;100674.00;;;12.54;93.60
44453;BME280;30155;52.164;21.236;2022-10-23T06:45:04;100681.37;;;12.53;93.52
44453;BME280;30155;52.164;21.236;2022-10-23T06:49:57;100694.84;;;12.51;93.39
44453;BME280;30155;52.164;21.236;2022-10-23T06:54:53;100699.62;;;12.53;93.43
44453;BME280;30155;52.164;21.236;2022-10-23T06:59:46;100701.87;;;12.60;93.24
44453;BME280;30155;52.164;21.236;2022-10-23T07:04:37;100705.87;;;12.71;92.97
44453;BME280;30155;52.164;21.236;2022-10-23T07:09:34;100712.88;;;12.78;92.62
44453;BME280;30155;52.164;21.236;2022-10-23T07:14:45;100717.67;;;12.80;92.56
44453;BME280;30155;52.164;21.236;2022-10-23T07:19:38;100715.11;;;12.85;92.50
44453;BME280;30155;52.164;21.236;2022-10-23T07:24:34;100713.83;;;12.89;92.22
44453;BME280;30155;52.164;21.236;2022-10-23T07:29:28;100713.48;;;13.04;91.93
44453;BME280;30155;52.164;21.236;2022-10-23T07:34:20;100709.31;;;13.30;91.54
44453;BME280;30155;52.164;21.236;2022-10-23T07:39:14;100714.67;;;13.52;91.01
44453;BME280;30155;52.164;21.236;2022-10-23T07:44:07;100719.55;;;13.65;91.03
44453;BME280;30155;52.164;21.236;2022-10-23T07:48:59;100717.81;;;13.71;90.78
44453;BME280;30155;52.164;21.236;2022-10-23T07:53:52;100726.55;;;13.77;90.44
44453;BME280;30155;52.164;21.236;2022-10-23T07:58:54;100719.96;;;13.64;90.66
44453;BME280;30155;52.164;21.236;2022-10-23T08:03:46;100718.66;;;13.61;90.95
44453;BME280;30155;52.164;21.236;2022-10-23T08:08:37;100717.41;;;13.77;90.50
44453;BME280;30155;52.164;21.236;2022-10-23T08:13:29;100713.95;;;13.84;90.36
44453;BME280;30155;52.164;21.236;2022-10-23T08:18:22;100706.12;;;13.87;90.58
44453;BME280;30155;52.164;21.236;2022-10-23T08:23:16;100708.33;;;13.98;90.28
44453;BME280;30155;52.164;21.236;2022-10-23T08:28:08;100709.29;;;14.31;89.95
44453;BME280;30155;52.164;21.236;2022-10-23T08:33:04;100693.19;;;14.70;89.32
44453;BME280;30155;52.164;21.236;2022-10-23T08:37:56;100697.03;;;15.27;88.36
44453;BME280;30155;52.164;21.236;2022-10-23T08:43:06;100706.17;;;15.39;87.60
44453;BME280;30155;52.164;21.236;2022-10-23T08:48:03;100712.27;;;15.49;87.28
44453;BME280;30155;52.164;21.236;2022-10-23T08:53:24;100721.91;;;15.32;86.81
44453;BME280;30155;52.164;21.236;2022-10-23T08:58:30;100723.71;;;15.03;86.92
44453;BME280;30155;52.164;21.236;2022-10-23T09:03:24;100725.05;;;14.86;87.16
44453;BME280;30155;52.164;21.236;2022-10-23T09:14:12;100731.56;;;14.66;88.18
44453;BME280;30155;52.164;21.236;2022-10-23T09:19:16;100737.24;;;14.66;88.18
44453;BME280;30155;52.164;21.236;2022-10-23T09:24:15;100739.42;;;14.59;88.36
44453;BME280;30155;52.164;21.236;2022-10-23T09:29:16;100734.16;;;14.53;88.32
44453;BME280;30155;52.164;21.236;2022-10-23T09:34:25;100740.69;;;14.56;88.58
44453;BME280;30155;52.164;21.236;2022-10-23T09:39:28;100738.08;;;14.57;88.64
44453;BME280;30155;52.164;21.236;2022-10-23T09:44:28;100741.16;;;14.63;88.94
44453;BME280;30155;52.164;21.236;2022-10-23T09:49:27;100729.84;;;14.89;88.77
44453;BME280;30155;52.164;21.236;2022-10-23T09:54:22;100727.17;;;15.15;88.39
44453;BME280;30155;52.164;21.236;2022-10-23T10:10:33;100719.64;;;15.60;86.82
44453;BME280;30155;52.164;21.236;2022-10-23T10:15:46;100719.69;;;15.48;87.14
44453;BME280;30155;52.164;21.236;2022-10-23T10:31:41;100712.27;;;15.48;86.87
44453;BME280;30155;52.164;21.236;2022-10-23T10:36:40;100714.92;;;15.40;86.66
44453;BME280;30155;52.164;21.236;2022-10-23T10:42:35;100714.92;;;15.34;86.78
44453;BME280;30155;52.164;21.236;2022-10-23T10:47:21;100711.89;;;15.33;86.73
44453;BME280;30155;52.164;21.236;2022-10-23T10:58:09;100698.37;;;15.25;86.66
44453;BME280;30155;52.164;21.236;2022-10-23T11:08:56;100697.54;;;14.93;86.94
44453;BME280;30155;52.164;21.236;2022-10-23T11:13:42;100692.32;;;14.82;87.44
44453;BME280;30155;52.164;21.236;2022-10-23T11:18:41;100687.97;;;14.76;87.42
44453;BME280;30155;52.164;21.236;2022-10-23T11:55:55;100685.69;;;15.33;86.14
44453;BME280;30155;52.164;21.236;2022-10-23T12:01:04;100681.19;;;15.69;85.21
44453;BME280;30155;52.164;21.236;2022-10-23T12:06:26;100684.13;;;15.96;84.58
44453;BME280;30155;52.164;21.236;2022-10-23T12:11:39;100675.36;;;15.98;84.69
44453;BME280;30155;52.164;21.236;2022-10-23T12:16:33;100669.62;;;16.10;84.32
44453;BME280;30155;52.164;21.236;2022-10-23T12:21:21;100667.04;;;16.00;84.33
44453;BME280;30155;52.164;21.236;2022-10-23T12:26:37;100660.59;;;15.84;84.01
44453;BME280;30155;52.164;21.236;2022-10-23T12:41:52;100651.00;;;15.72;84.13
44453;BME280;30155;52.164;21.236;2022-10-23T12:46:49;100650.16;;;15.77;83.90
44453;BME280;30155;52.164;21.236;2022-10-23T12:51:43;100650.11;;;15.82;83.71
44453;BME280;30155;52.164;21.236;2022-10-23T12:56:36;100646.11;;;15.94;83.50
44453;BME280;30155;52.164;21.236;2022-10-23T13:01:33;100649.12;;;16.01;83.56
44453;BME280;30155;52.164;21.236;2022-10-23T13:06:25;100650.45;;;15.98;83.15
44453;BME280;30155;52.164;21.236;2022-10-23T13:11:19;100646.17;;;15.85;83.20
44453;BME280;30155;52.164;21.236;2022-10-23T13:16:18;100647.50;;;15.80;83.44
44453;BME280;30155;52.164;21.236;2022-10-23T13:21:28;100651.89;;;15.75;83.02
44453;BME280;30155;52.164;21.236;2022-10-23T13:26:31;100664.16;;;15.59;83.21
44453;BME280;30155;52.164;21.236;2022-10-23T13:31:32;100657.25;;;15.43;82.68
44453;BME280;30155;52.164;21.236;2022-10-23T13:36:23;100662.08;;;15.37;83.30
44453;BME280;30155;52.164;21.236;2022-10-23T13:41:18;100661.67;;;15.35;83.13
44453;BME280;30155;52.164;21.236;2022-10-23T13:46:19;100652.05;;;15.34;83.16
44453;BME280;30155;52.164;21.236;2022-10-23T13:51:26;100662.53;;;15.34;83.60
44453;BME280;30155;52.164;21.236;2022-10-23T13:56:20;100652.91;;;15.34;83.50
44453;BME280;30155;52.164;21.236;2022-10-23T14:01:25;100652.47;;;15.39;83.56
44453;BME280;30155;52.164;21.236;2022-10-23T14:06:18;100656.84;;;15.39;83.51
44453;BME280;30155;52.164;21.236;2022-10-23T14:11:10;100649.02;;;15.33;83.72
44453;BME280;30155;52.164;21.236;2022-10-23T14:16:02;100654.71;;;15.23;83.83
44453;BME280;30155;52.164;21.236;2022-10-23T14:20:53;100648.61;;;15.16;84.13
44453;BME280;30155;52.164;21.236;2022-10-23T14:25:45;100645.12;;;15.13;84.19
44453;BME280;30155;52.164;21.236;2022-10-23T14:30:37;100652.16;;;15.06;84.14
44453;BME280;30155;52.164;21.236;2022-10-23T14:35:28;100657.39;;;15.00;84.37
44453;BME280;30155;52.164;21.236;2022-10-23T14:40:19;100658.28;;;14.96;84.45
44453;BME280;30155;52.164;21.236;2022-10-23T14:45:11;100653.48;;;14.95;84.50
44453;BME280;30155;52.164;21.236;2022-10-23T14:50:03;100658.72;;;14.91;84.65
44453;BME280;30155;52.164;21.236;2022-10-23T14:54:55;100656.54;;;14.85;84.69
44453;BME280;30155;52.164;21.236;2022-10-23T14:59:46;100656.12;;;14.78;84.80
44453;BME280;30155;52.164;21.236;2022-10-23T15:04:38;100648.29;;;14.72;84.86
44453;BME280;30155;52.164;21.236;2022-10-23T15:09:30;100646.11;;;14.67;84.99
44453;BME280;30155;52.164;21.236;2022-10-23T15:14:27;100643.48;;;14.62;85.11
44453;BME280;30155;52.164;21.236;2022-10-23T15:19:18;100640.00;;;14.59;85.13
44453;BME280;30155;52.164;21.236;2022-10-23T15:24:09;100636.03;;;14.56;85.36
44453;BME280;30155;52.164;21.236;2022-10-23T15:29:01;100648.27;;;14.51;85.30
44453;BME280;30155;52.164;21.236;2022-10-23T15:33:52;100648.70;;;14.45;85.18
44453;BME280;30155;52.164;21.236;2022-10-23T15:38:43;100658.29;;;14.40;85.04
44453;BME280;30155;52.164;21.236;2022-10-23T15:43:34;100658.28;;;14.37;84.95
44453;BME280;30155;52.164;21.236;2022-10-23T15:48:25;100660.89;;;14.28;84.84
44453;BME280;30155;52.164;21.236;2022-10-23T15:53:17;100660.89;;;14.28;84.84
44453;BME280;30155;52.164;21.236;2022-10-23T15:59:04;100666.11;;;14.25;84.32
44453;BME280;30155;52.164;21.236;2022-10-23T16:03:55;100671.36;;;14.22;84.19
44453;BME280;30155;52.164;21.236;2022-10-23T16:08:46;100672.66;;;14.19;83.99
44453;BME280;30155;52.164;21.236;2022-10-23T16:13:37;100681.80;;;14.17;83.87
44453;BME280;30155;52.164;21.236;2022-10-23T16:18:28;100673.95;;;14.14;83.95
44453;BME280;30155;52.164;21.236;2022-10-23T16:23:20;100675.70;;;14.14;84.08
44453;BME280;30155;52.164;21.236;2022-10-23T16:28:22;100678.75;;;14.13;84.04
44453;BME280;30155;52.164;21.236;2022-10-23T16:33:34;100678.75;;;14.11;84.00
44453;BME280;30155;52.164;21.236;2022-10-23T16:38:25;100678.30;;;14.10;84.05
44453;BME280;30155;52.164;21.236;2022-10-23T16:43:17;100677.41;;;14.05;84.04
44453;BME280;30155;52.164;21.236;2022-10-23T16:48:10;100681.75;;;13.94;84.17
44453;BME280;30155;52.164;21.236;2022-10-23T16:53:05;100686.09;;;13.84;84.40
44453;BME280;30155;52.164;21.236;2022-10-23T16:57:57;100685.21;;;13.81;84.67
44453;BME280;30155;52.164;21.236;2022-10-23T17:02:52;100684.30;;;13.79;84.80
44453;BME280;30155;52.164;21.236;2022-10-23T17:07:45;100693.88;;;13.75;84.99
44453;BME280;30155;52.164;21.236;2022-10-23T17:12:36;100701.73;;;13.72;85.08
44453;BME280;30155;52.164;21.236;2022-10-23T17:17:28;100698.22;;;13.71;85.11
44453;BME280;30155;52.164;21.236;2022-10-23T17:22:19;100695.19;;;13.70;85.28
44453;BME280;30155;52.164;21.236;2022-10-23T17:27:13;100701.24;;;13.66;85.35
44453;BME280;30155;52.164;21.236;2022-10-23T17:32:04;100699.91;;;13.54;85.26
44453;BME280;30155;52.164;21.236;2022-10-23T17:36:58;100689.35;;;13.35;84.92
44453;BME280;30155;52.164;21.236;2022-10-23T17:41:50;100697.06;;;13.17;85.05
44453;BME280;30155;52.164;21.236;2022-10-23T17:46:41;100701.75;;;13.01;85.54
44453;BME280;30155;52.164;21.236;2022-10-23T17:51:34;100702.51;;;12.84;85.63
44453;BME280;30155;52.164;21.236;2022-10-23T17:56:30;100710.66;;;12.70;85.69
44453;BME280;30155;52.164;21.236;2022-10-23T18:01:49;100707.14;;;12.68;86.12
44453;BME280;30155;52.164;21.236;2022-10-23T18:06:53;100703.64;;;12.63;86.10
44453;BME280;30155;52.164;21.236;2022-10-23T18:11:55;100704.42;;;12.52;85.97
44453;BME280;30155;52.164;21.236;2022-10-23T18:16:47;100703.89;;;12.42;85.79
44453;BME280;30155;52.164;21.236;2022-10-23T18:21:39;100696.45;;;12.37;86.37
44453;BME280;30155;52.164;21.236;2022-10-23T18:26:31;100698.13;;;12.32;86.38
44453;BME280;30155;52.164;21.236;2022-10-23T18:31:28;100698.13;;;12.29;86.47
44453;BME280;30155;52.164;21.236;2022-10-23T18:36:22;100694.62;;;12.25;86.83
44453;BME280;30155;52.164;21.236;2022-10-23T18:41:16;100692.84;;;12.23;86.96
44453;BME280;30155;52.164;21.236;2022-10-23T18:46:10;100698.42;;;12.17;86.94
44453;BME280;30155;52.164;21.236;2022-10-23T18:51:02;100712.71;;;12.11;86.77
44453;BME280;30155;52.164;21.236;2022-10-23T18:55:53;100713.52;;;12.07;87.12
44453;BME280;30155;52.164;21.236;2022-10-23T19:00:46;100712.58;;;11.99;86.81
44453;BME280;30155;52.164;21.236;2022-10-23T19:05:44;100704.61;;;11.88;86.98
44453;BME280;30155;52.164;21.236;2022-10-23T19:10:37;100702.74;;;11.78;86.97
44453;BME280;30155;52.164;21.236;2022-10-23T19:15:29;100698.28;;;11.66;87.06
44453;BME280;30155;52.164;21.236;2022-10-23T19:20:22;100693.34;;;11.55;87.04
44453;BME280;30155;52.164;21.236;2022-10-23T19:25:19;100697.96;;;11.41;86.87
44453;BME280;30155;52.164;21.236;2022-10-23T19:30:18;100690.41;;;11.30;86.80
44453;BME280;30155;52.164;21.236;2022-10-23T19:35:11;100692.41;;;11.17;86.42
44453;BME280;30155;52.164;21.236;2022-10-23T19:40:05;100686.95;;;10.98;85.80
44453;BME280;30155;52.164;21.236;2022-10-23T19:44:58;100695.47;;;10.88;86.10
44453;BME280;30155;52.164;21.236;2022-10-23T19:49:49;100697.84;;;10.74;86.37
44453;BME280;30155;52.164;21.236;2022-10-23T19:54:41;100699.89;;;10.67;86.60
44453;BME280;30155;52.164;21.236;2022-10-23T19:59:33;100693.77;;;10.63;86.89
44453;BME280;30155;52.164;21.236;2022-10-23T20:04:24;100697.12;;;10.56;86.65
44453;BME280;30155;52.164;21.236;2022-10-23T20:09:15;100693.50;;;10.48;86.68
44453;BME280;30155;52.164;21.236;2022-10-23T20:14:07;100689.82;;;10.35;86.05
44453;BME280;30155;52.164;21.236;2022-10-23T20:19:01;100687.41;;;10.22;85.71
44453;BME280;30155;52.164;21.236;2022-10-23T20:23:56;100688.97;;;10.13;85.65
44453;BME280;30155;52.164;21.236;2022-10-23T20:28:53;100685.31;;;10.03;85.73
44453;BME280;30155;52.164;21.236;2022-10-23T20:33:45;100677.35;;;9.93;85.85
44453;BME280;30155;52.164;21.236;2022-10-23T20:38:37;100681.98;;;9.86;85.80
44453;BME280;30155;52.164;21.236;2022-10-23T20:43:33;100677.41;;;9.74;85.37
44453;BME280;30155;52.164;21.236;2022-10-23T20:48:25;100668.68;;;9.69;85.64
44453;BME280;30155;52.164;21.236;2022-10-23T20:53:16;100670.67;;;9.61;85.43
44453;BME280;30155;52.164;21.236;2022-10-23T20:58:08;100668.86;;;9.58;85.98
44453;BME280;30155;52.164;21.236;2022-10-23T21:03:00;100658.84;;;9.54;86.02
44453;BME280;30155;52.164;21.236;2022-10-23T21:08:23;100665.16;;;9.45;85.50
44453;BME280;30155;52.164;21.236;2022-10-23T21:13:18;100667.23;;;9.41;86.01
44453;BME280;30155;52.164;21.236;2022-10-23T21:18:10;100659.84;;;9.39;86.33
44453;BME280;30155;52.164;21.236;2022-10-23T21:23:03;100661.14;;;9.39;85.97
44453;BME280;30155;52.164;21.236;2022-10-23T21:27:56;100654.66;;;9.39;86.31
44453;BME280;30155;52.164;21.236;2022-10-23T21:32:47;100652.10;;;9.42;86.34
44453;BME280;30155;52.164;21.236;2022-10-23T21:37:38;100656.03;;;9.44;86.28
44453;BME280;30155;52.164;21.236;2022-10-23T21:42:30;100656.47;;;9.43;86.35
44453;BME280;30155;52.164;21.236;2022-10-23T21:47:23;100659.89;;;9.42;86.40
44453;BME280;30155;52.164;21.236;2022-10-23T21:52:14;100656.47;;;9.43;86.72
44453;BME280;30155;52.164;21.236;2022-10-23T21:57:13;100645.11;;;9.38;86.58
44453;BME280;30155;52.164;21.236;2022-10-23T22:02:04;100645.11;;;9.38;86.58
44453;BME280;30155;52.164;21.236;2022-10-23T22:06:56;100639.45;;;9.37;86.80
44453;BME280;30155;52.164;21.236;2022-10-23T22:11:49;100649.55;;;9.44;86.97
44453;BME280;30155;52.164;21.236;2022-10-23T22:16:41;100652.64;;;9.46;87.06
44453;BME280;30155;52.164;21.236;2022-10-23T22:21:32;100652.64;;;9.46;87.06
44453;BME280;30155;52.164;21.236;2022-10-23T22:26:38;100654.91;;;9.51;87.66
44453;BME280;30155;52.164;21.236;2022-10-23T22:31:32;100651.92;;;9.53;87.60
44453;BME280;30155;52.164;21.236;2022-10-23T22:36:25;100662.34;;;9.55;87.83
44453;BME280;30155;52.164;21.236;2022-10-23T22:41:16;100668.91;;;9.60;87.85
44453;BME280;30155;52.164;21.236;2022-10-23T22:46:13;100658.27;;;9.68;88.39
44453;BME280;30155;52.164;21.236;2022-10-23T22:51:13;100658.83;;;9.75;88.43
44453;BME280;30155;52.164;21.236;2022-10-23T22:56:11;100646.69;;;9.74;88.33
44453;BME280;30155;52.164;21.236;2022-10-23T23:06:12;100641.25;;;9.62;87.90
44453;BME280;30155;52.164;21.236;2022-10-23T23:11:04;100632.05;;;9.56;87.89
44453;BME280;30155;52.164;21.236;2022-10-23T23:15:56;100635.88;;;9.52;88.00
44453;BME280;30155;52.164;21.236;2022-10-23T23:20:47;100634.52;;;9.49;88.11
44453;BME280;30155;52.164;21.236;2022-10-23T23:25:41;100623.23;;;9.47;88.37
44453;BME280;30155;52.164;21.236;2022-10-23T23:30:33;100621.03;;;9.45;88.13
44453;BME280;30155;52.164;21.236;2022-10-23T23:35:25;100628.31;;;9.41;87.99
44453;BME280;30155;52.164;21.236;2022-10-23T23:40:16;100626.98;;;9.40;88.17
44453;BME280;30155;52.164;21.236;2022-10-23T23:45:07;100625.25;;;9.40;88.56
44453;BME280;30155;52.164;21.236;2022-10-23T23:49:59;100628.75;;;9.42;88.71
44453;BME280;30155;52.164;21.236;2022-10-23T23:54:50;100606.36;;;9.47;88.74
44453;BME280;30155;52.164;21.236;2022-10-23T23:59:42;100606.36;;;9.47;88.74
